Time;durP1;ratioP1;P1;durP2;ratioP2;P2;SDS_P1;SDS_P2;PMS_P1;PMS_P2;Temp;Humidity;BMP_temperature;BMP_pressure;BME280_temperature;BME280_humidity;BME280_pressure;Samples;Min_cycle;Max_cycle;Signal;HPM_P1;HPM_P2
2024/01/05 00:00:43;;;;;;;12.13;10.13;;;6.30;29.10;;;;;;5030489;28;20033;-77
2024/01/05 00:03:08;;;;;;;10.93;9.82;;;6.50;39.80;;;;;;5030188;28;20172;-72
2024/01/05 00:05:35;;;;;;;11.73;9.93;;;6.30;8.50;;;;;;5033028;28;20045;-73
2024/01/05 00:08:01;;;;;;;11.45;9.07;;;7.10;12.90;;;;;;5043389;28;20608;-77
2024/01/05 00:10:27;;;;;;;11.75;8.35;;;6.50;3.70;;;;;;5027615;28;20084;-75
2024/01/05 00:12:53;;;;;;;12.43;9.95;;;7.00;1.00;;;;;;5059696;28;20503;-76
2024/01/05 00:15:18;;;;;;;12.65;8.70;;;6.40;1.00;;;;;;5033454;28;20090;-72
2024/01/05 00:17:44;;;;;;;13.15;10.93;;;6.60;1.00;;;;;;5048099;28;20037;-77
2024/01/05 00:20:11;;;;;;;14.73;12.02;;;7.00;1.00;;;;;;5041127;28;20045;-76
2024/01/05 00:22:37;;;;;;;12.98;8.73;;;6.70;14.80;;;;;;5031820;28;20048;-73
2024/01/05 00:25:03;;;;;;;12.57;7.93;;;6.30;45.10;;;;;;5049555;28;20088;-78
2024/01/05 00:27:29;;;;;;;12.63;11.32;;;6.20;66.10;;;;;;5047850;28;20432;-74
2024/01/05 00:29:56;;;;;;;14.68;12.73;;;6.40;99.90;;;;;;5046511;28;20533;-76
2024/01/05 00:32:21;;;;;;;14.10;12.45;;;7.00;99.90;;;;;;5049878;28;20049;-78
2024/01/05 00:34:47;;;;;;;13.63;8.80;;;6.20;99.90;;;;;;5048846;28;20048;-74
2024/01/05 00:37:13;;;;;;;13.18;9.95;;;7.00;99.90;;;;;;5048899;28;20388;-76
2024/01/05 00:39:38;;;;;;;12.43;9.35;;;6.20;99.90;;;;;;5031993;28;20044;-77
2024/01/05 00:42:05;;;;;;;15.50;13.07;;;6.30;99.90;;;;;;5057243;28;20064;-73
2024/01/05 00:44:31;;;;;;;15.43;11.40;;;6.90;99.90;;;;;;5045665;28;20076;-76
2024/01/05 00:46:57;;;;;;;16.90;11.60;;;6.40;99.90;;;;;;5049003;28;20083;-75
2024/01/05 00:49:22;;;;;;;15.52;10.40;;;6.50;99.90;;;;;;5032232;28;20056;-78
2024/01/05 00:51:48;;;;;;;17.42;13.68;;;6.20;99.90;;;;;;5032633;28;20049;-74
2024/01/05 00:54:14;;;;;;;16.92;13.65;;;6.70;99.90;;;;;;5033160;28;20819;-80
2024/01/05 00:56:39;;;;;;;16.13;10.20;;;6.20;99.90;;;;;;5030557;28;20385;-74
2024/01/05 00:59:06;;;;;;;14.45;10.27;;;7.00;99.90;;;;;;5048887;28;20041;-75
2024/01/05 01:01:32;;;;;;;14.15;10.55;;;7.00;99.90;;;;;;5028832;28;20120;-74
2024/01/05 01:03:58;;;;;;;18.75;14.85;;;6.50;99.90;;;;;;5044057;28;20444;-75
2024/01/05 01:06:24;;;;;;;13.98;9.43;;;6.60;99.90;;;;;;5027754;28;20037;-73
2024/01/05 01:08:50;;;;;;;12.98;9.40;;;6.90;99.90;;;;;;5045444;28;20072;-75
2024/01/05 01:11:17;;;;;;;16.52;14.32;;;6.50;99.90;;;;;;5047229;28;20079;-76
2024/01/05 01:13:43;;;;;;;16.85;13.32;;;7.00;99.90;;;;;;5049177;28;20458;-74
2024/01/05 01:16:10;;;;;;;17.38;10.98;;;6.30;99.90;;;;;;5030313;28;20094;-76
2024/01/05 01:18:36;;;;;;;14.63;10.48;;;7.10;99.90;;;;;;5049082;28;20040;-76
2024/01/05 01:21:01;;;;;;;14.65;10.40;;;6.10;99.90;;;;;;5031301;28;20095;-75
2024/01/05 01:23:27;;;;;;;14.93;10.65;;;6.20;99.90;;;;;;5046317;28;20045;-73
2024/01/05 01:25:53;;;;;;;14.48;10.35;;;6.00;99.90;;;;;;5026638;28;20033;-74
2024/01/05 01:28:19;;;;;;;15.23;10.88;;;6.20;99.90;;;;;;5011416;28;20382;-75
2024/01/05 01:30:44;;;;;;;14.55;9.70;;;6.00;99.90;;;;;;5056826;28;20119;-74
2024/01/05 01:33:10;;;;;;;14.77;10.60;;;6.80;99.90;;;;;;5046831;28;20044;-74
2024/01/05 01:35:36;;;;;;;16.65;13.50;;;6.90;99.90;;;;;;5055712;28;20048;-77
2024/01/05 01:38:01;;;;;;;13.93;10.30;;;6.60;99.90;;;;;;5038623;28;20037;-79
2024/01/05 01:40:27;;;;;;;14.52;10.68;;;6.00;99.90;;;;;;5045908;28;20041;-77
2024/01/05 01:42:53;;;;;;;12.93;9.27;;;6.80;99.90;;;;;;5043861;28;20080;-73
2024/01/05 01:45:19;;;;;;;14.50;10.00;;;6.90;99.90;;;;;;5071225;28;20067;-76
2024/01/05 01:47:46;;;;;;;12.45;8.95;;;6.30;99.90;;;;;;5070228;28;20095;-75
2024/01/05 01:50:13;;;;;;;14.95;10.40;;;6.90;99.90;;;;;;5051562;28;20179;-78
2024/01/05 01:52:42;;;;;;;12.10;8.98;;;7.00;99.90;;;;;;5029049;28;20044;-75
2024/01/05 01:55:09;;;;;;;17.45;10.98;;;6.00;99.90;;;;;;5014238;28;20045;-74
2024/01/05 01:57:37;;;;;;;13.07;9.32;;;6.90;99.90;;;;;;5051100;28;20095;-76
2024/01/05 02:00:03;;;;;;;15.02;9.43;;;7.00;99.90;;;;;;5029309;28;20056;-76
2024/01/05 02:02:30;;;;;;;15.85;10.00;;;6.70;99.90;;;;;;5031412;28;20033;-76
2024/01/05 02:04:56;;;;;;;16.63;10.43;;;6.90;99.90;;;;;;5046609;28;20041;-77
2024/01/05 02:07:22;;;;;;;15.73;10.02;;;6.60;99.90;;;;;;5045391;28;20033;-75
2024/01/05 02:09:48;;;;;;;16.27;10.60;;;6.30;99.90;;;;;;5054241;28;20404;-71
2024/01/05 02:12:14;;;;;;;17.35;10.52;;;7.10;99.90;;;;;;5044761;28;20072;-73
2024/01/05 02:14:40;;;;;;;18.92;10.10;;;6.20;99.90;;;;;;5044670;28;20125;-74
2024/01/05 02:17:26;;;;;;;15.88;10.05;;;6.20;99.90;;;;;;5043038;28;20055;-76
2024/01/05 02:19:52;;;;;;;15.20;8.95;;;6.20;99.90;;;;;;5045657;28;20747;-71
2024/01/05 02:22:19;;;;;;;16.83;10.98;;;7.00;99.90;;;;;;5036485;28;20037;-77
2024/01/05 02:24:45;;;;;;;17.33;10.18;;;6.20;99.90;;;;;;5028625;28;20037;-73
2024/01/05 02:27:10;;;;;;;17.13;10.32;;;7.10;99.90;;;;;;5042044;28;20055;-73
2024/01/05 02:29:36;;;;;;;16.52;10.60;;;6.10;99.90;;;;;;5026022;28;20029;-75
2024/01/05 02:32:02;;;;;;;17.35;10.38;;;7.00;99.90;;;;;;5026116;28;20037;-71
2024/01/05 02:34:28;;;;;;;17.83;10.15;;;6.40;99.90;;;;;;5045478;28;20048;-73
2024/01/05 02:36:53;;;;;;;16.83;11.15;;;6.10;99.90;;;;;;5028785;28;20044;-73
2024/01/05 02:39:19;;;;;;;17.10;11.00;;;7.10;99.90;;;;;;5045660;28;20037;-77
2024/01/05 02:41:45;;;;;;;15.50;10.57;;;7.10;99.90;;;;;;5031104;28;20045;-77
2024/01/05 02:44:11;;;;;;;14.18;9.60;;;7.00;99.90;;;;;;5056457;28;20064;-79
2024/01/05 02:46:37;;;;;;;20.88;11.57;;;6.10;99.90;;;;;;5042873;28;20044;-73
2024/01/05 02:49:03;;;;;;;16.63;10.30;;;6.90;99.90;;;;;;5008850;28;20128;-73
2024/01/05 02:51:29;;;;;;;16.83;10.85;;;6.00;99.90;;;;;;5030240;28;21407;-78
2024/01/05 02:53:55;;;;;;;15.85;10.90;;;6.00;99.90;;;;;;5070880;28;20045;-77
2024/01/05 02:56:24;;;;;;;14.30;10.40;;;6.10;99.90;;;;;;5028449;28;20648;-77
2024/01/05 02:58:53;;;;;;;20.23;11.80;;;6.30;99.90;;;;;;5028712;28;20048;-77
2024/01/05 03:01:19;;;;;;;21.95;12.82;;;6.10;99.90;;;;;;5046663;28;20049;-77
2024/01/05 03:03:47;;;;;;;20.17;11.40;;;6.20;99.90;;;;;;5042494;28;20166;-76
2024/01/05 03:06:16;;;;;;;19.55;11.63;;;6.40;99.90;;;;;;5042251;28;20029;-74
2024/01/05 03:08:43;;;;;;;22.38;12.70;;;6.60;99.90;;;;;;5044783;28;20048;-74
2024/01/05 03:11:09;;;;;;;16.67;10.05;;;6.90;99.90;;;;;;5039287;28;20036;-76
2024/01/05 03:13:35;;;;;;;22.17;12.15;;;7.00;99.90;;;;;;5045895;28;20439;-78
2024/01/05 03:16:01;;;;;;;20.88;11.65;;;6.60;99.90;;;;;;5026754;28;20117;-77
2024/01/05 03:18:27;;;;;;;21.10;12.13;;;7.00;99.90;;;;;;5029526;28;20049;-81
2024/01/05 03:20:52;;;;;;;20.55;12.30;;;6.90;99.90;;;;;;5046943;28;20114;-78
2024/01/05 03:23:18;;;;;;;19.73;12.18;;;7.00;99.90;;;;;;5028773;28;20044;-75
2024/01/05 03:25:45;;;;;;;25.70;14.30;;;7.00;99.90;;;;;;5025912;28;20071;-73
2024/01/05 03:28:12;;;;;;;22.13;13.13;;;7.00;99.90;;;;;;5025717;28;20115;-78
2024/01/05 03:30:38;;;;;;;22.40;13.25;;;6.50;99.90;;;;;;5045240;28;20040;-78
2024/01/05 03:33:04;;;;;;;21.70;12.35;;;6.50;99.90;;;;;;5046883;28;20047;-77
2024/01/05 03:35:30;;;;;;;21.52;13.35;;;6.20;99.90;;;;;;5053835;28;20377;-73
2024/01/05 03:37:56;;;;;;;22.42;13.02;;;5.90;99.90;;;;;;5044027;28;20057;-72
2024/01/05 03:40:22;;;;;;;24.85;13.05;;;6.10;99.90;;;;;;5027291;28;20037;-76
2024/01/05 03:42:48;;;;;;;24.92;13.93;;;7.10;99.90;;;;;;5044938;28;20473;-74
2024/01/05 03:45:14;;;;;;;20.67;12.23;;;6.20;99.90;;;;;;5044756;28;20556;-76
2024/01/05 03:47:40;;;;;;;17.30;10.60;;;7.00;99.90;;;;;;5028341;28;20049;-76
2024/01/05 03:50:06;;;;;;;21.13;13.18;;;6.90;99.90;;;;;;5049648;28;20505;-71
2024/01/05 03:52:32;;;;;;;19.08;12.15;;;6.90;99.90;;;;;;5046156;28;20368;-73
2024/01/05 03:54:58;;;;;;;22.25;13.60;;;7.00;99.90;;;;;;5045785;28;20039;-72
2024/01/05 03:57:24;;;;;;;20.60;13.73;;;7.10;99.90;;;;;;5048814;28;20029;-76
2024/01/05 03:59:50;;;;;;;24.67;13.60;;;6.70;99.90;;;;;;5050649;28;20129;-78
2024/01/05 04:02:16;;;;;;;23.33;16.55;;;7.00;99.90;;;;;;5047680;28;20184;-73
2024/01/05 04:04:42;;;;;;;20.13;12.35;;;6.80;99.90;;;;;;5050808;28;20040;-74
2024/01/05 04:07:08;;;;;;;23.02;13.13;;;6.00;99.90;;;;;;5030108;28;20492;-76
2024/01/05 04:09:34;;;;;;;22.75;13.15;;;7.20;99.90;;;;;;5054413;28;20036;-79
2024/01/05 04:12:00;;;;;;;19.17;11.80;;;6.20;99.90;;;;;;5033257;28;20041;-75
2024/01/05 04:14:26;;;;;;;18.33;11.60;;;6.80;99.90;;;;;;5049164;28;20044;-77
2024/01/05 04:16:52;;;;;;;18.80;12.07;;;6.50;99.90;;;;;;5042848;28;20045;-74
2024/01/05 04:19:17;;;;;;;20.05;11.80;;;7.00;99.90;;;;;;5030045;28;20404;-74
2024/01/05 04:21:43;;;;;;;22.45;13.77;;;6.00;99.90;;;;;;5039837;28;20033;-76
2024/01/05 04:24:10;;;;;;;17.42;11.73;;;6.10;99.90;;;;;;5060546;28;20116;-73
2024/01/05 04:26:36;;;;;;;20.98;12.52;;;6.20;99.90;;;;;;5046685;28;20037;-79
2024/01/05 04:29:01;;;;;;;22.13;12.98;;;7.10;99.90;;;;;;5045476;28;20099;-76
2024/01/05 04:31:27;;;;;;;21.10;13.60;;;6.70;99.90;;;;;;5049717;28;20048;-77
2024/01/05 04:33:54;;;;;;;19.00;12.25;;;6.00;99.90;;;;;;5049935;28;20041;-78
2024/01/05 04:36:20;;;;;;;22.05;13.15;;;6.90;99.90;;;;;;5028049;28;20041;-78
2024/01/05 04:38:46;;;;;;;23.27;13.93;;;6.20;99.90;;;;;;5030600;28;20064;-81
2024/01/05 04:41:13;;;;;;;23.65;13.52;;;7.20;99.90;;;;;;5076653;28;20073;-78
2024/01/05 04:43:39;;;;;;;23.30;13.60;;;7.10;99.90;;;;;;5031124;28;20037;-76
2024/01/05 04:46:06;;;;;;;18.27;12.68;;;7.10;99.90;;;;;;5049762;28;20029;-75
2024/01/05 04:48:32;;;;;;;19.17;12.02;;;7.10;99.90;;;;;;5041237;28;20065;-78
2024/01/05 04:50:58;;;;;;;20.10;13.20;;;7.10;99.90;;;;;;5043572;28;20053;-76
2024/01/05 04:53:23;;;;;;;18.95;12.50;;;6.10;99.90;;;;;;5032484;28;20040;-79
2024/01/05 04:55:49;;;;;;;21.02;12.43;;;7.10;99.90;;;;;;5044876;28;20049;-81
2024/01/05 04:58:15;;;;;;;23.27;14.20;;;7.20;99.90;;;;;;5045562;28;20041;-78
2024/01/05 05:00:40;;;;;;;24.13;14.00;;;6.90;99.90;;;;;;5029938;28;20128;-74
2024/01/05 05:03:06;;;;;;;19.73;12.40;;;7.00;99.90;;;;;;5029491;28;20033;-78
2024/01/05 05:05:32;;;;;;;21.05;13.10;;;6.00;99.90;;;;;;5044707;28;20099;-78
2024/01/05 05:07:58;;;;;;;23.20;13.35;;;6.00;99.90;;;;;;5041341;28;20132;-74
2024/01/05 05:10:24;;;;;;;20.60;12.45;;;7.20;99.90;;;;;;5052418;28;20049;-77
2024/01/05 05:12:50;;;;;;;20.05;12.05;;;7.20;99.90;;;;;;5044363;28;20049;-77
2024/01/05 05:15:15;;;;;;;16.95;10.95;;;6.40;99.90;;;;;;5048680;28;20032;-74
2024/01/05 05:17:41;;;;;;;17.10;10.65;;;6.20;99.90;;;;;;5030392;28;20584;-77
2024/01/05 05:20:07;;;;;;;16.50;11.05;;;7.30;99.90;;;;;;5070088;28;20389;-77
2024/01/05 05:22:33;;;;;;;18.88;9.10;;;6.60;99.90;;;;;;5027566;28;20044;-76
2024/01/05 05:24:59;;;;;;;16.90;11.20;;;7.50;99.90;;;;;;5044807;28;20037;-78
2024/01/05 05:27:25;;;;;;;14.77;11.00;;;6.00;99.90;;;;;;5048100;28;20055;-78
2024/01/05 05:29:50;;;;;;;16.63;10.35;;;7.30;99.90;;;;;;5044538;28;20056;-74
2024/01/05 05:32:16;;;;;;;15.77;10.27;;;7.50;99.90;;;;;;5031709;28;20132;-75
2024/01/05 05:34:44;;;;;;;13.30;8.80;;;6.40;99.90;;;;;;5031407;28;20041;-76
2024/01/05 05:37:10;;;;;;;15.30;10.10;;;6.20;99.90;;;;;;5029556;28;20033;-75
2024/01/05 05:39:36;;;;;;;16.23;10.23;;;5.90;99.90;;;;;;5054039;28;20512;-75
2024/01/05 05:42:02;;;;;;;15.77;10.30;;;7.40;99.90;;;;;;5046651;28;20044;-78
2024/01/05 05:44:29;;;;;;;16.05;10.13;;;7.10;99.90;;;;;;5044271;28;20051;-76
2024/01/05 05:46:56;;;;;;;15.05;9.80;;;6.30;99.90;;;;;;5027976;28;20060;-77
2024/01/05 05:49:21;;;;;;;16.50;10.82;;;7.00;99.90;;;;;;5041687;28;20057;-74
2024/01/05 05:51:47;;;;;;;15.65;9.93;;;7.30;99.90;;;;;;5066475;28;20048;-78
2024/01/05 05:54:13;;;;;;;14.98;9.55;;;7.30;99.90;;;;;;5025029;28;20049;-76
2024/01/05 05:56:39;;;;;;;12.52;8.18;;;6.10;99.90;;;;;;5045831;28;20137;-77
2024/01/05 05:59:05;;;;;;;16.15;11.07;;;7.30;99.90;;;;;;5048643;28;20492;-76
2024/01/05 06:01:31;;;;;;;16.63;11.02;;;6.70;99.90;;;;;;5044710;28;20037;-75
2024/01/05 06:03:57;;;;;;;16.38;11.43;;;7.20;99.90;;;;;;5032786;28;20632;-77
2024/01/05 06:06:24;;;;;;;13.75;8.63;;;7.70;99.90;;;;;;5043769;28;20063;-75
2024/01/05 06:08:51;;;;;;;13.35;7.65;;;7.30;99.90;;;;;;5047961;28;20032;-76
2024/01/05 06:11:18;;;;;;;16.58;12.00;;;6.10;99.90;;;;;;5030147;28;20048;-75
2024/01/05 06:13:45;;;;;;;17.13;11.50;;;7.60;99.90;;;;;;5027463;28;20044;-75
2024/01/05 06:16:11;;;;;;;15.13;10.45;;;7.20;99.90;;;;;;5038151;28;20120;-78
2024/01/05 06:18:37;;;;;;;16.67;10.75;;;6.40;99.90;;;;;;5024695;28;20099;-77
2024/01/05 06:21:04;;;;;;;14.95;10.57;;;7.60;99.90;;;;;;5046254;28;20040;-72
2024/01/05 06:23:30;;;;;;;17.13;10.77;;;6.60;99.90;;;;;;5045397;28;20047;-77
2024/01/05 06:25:56;;;;;;;17.15;11.52;;;6.00;99.90;;;;;;5052833;28;20393;-79
2024/01/05 06:28:22;;;;;;;14.18;9.82;;;6.60;99.90;;;;;;5045382;28;20040;-74
2024/01/05 06:30:47;;;;;;;17.20;11.40;;;6.60;99.90;;;;;;5047483;28;20491;-76
2024/01/05 06:33:13;;;;;;;14.73;11.40;;;7.20;99.90;;;;;;5028628;28;20397;-73
2024/01/05 06:35:39;;;;;;;17.38;11.50;;;6.70;99.90;;;;;;5044209;28;20040;-75
2024/01/05 06:38:04;;;;;;;16.73;12.00;;;7.10;99.90;;;;;;5057544;28;20037;-74
2024/01/05 06:40:30;;;;;;;16.63;10.63;;;7.60;99.90;;;;;;5045816;28;20041;-75
2024/01/05 06:42:57;;;;;;;16.33;10.73;;;7.80;99.90;;;;;;5043707;28;20064;-74
2024/01/05 06:45:26;;;;;;;16.35;11.50;;;6.60;99.90;;;;;;5050188;28;20063;-74
2024/01/05 06:47:52;;;;;;;17.23;11.68;;;7.50;99.90;;;;;;5045611;28;20090;-77
2024/01/05 06:50:17;;;;;;;13.80;9.55;;;7.20;99.90;;;;;;5046492;28;20053;-79
2024/01/05 06:52:43;;;;;;;16.15;11.00;;;7.60;99.90;;;;;;5030053;28;20485;-74
2024/01/05 06:55:09;;;;;;;15.13;10.27;;;6.20;99.90;;;;;;5044535;28;20048;-71
2024/01/05 06:57:35;;;;;;;14.10;11.35;;;7.60;99.90;;;;;;5046060;28;20045;-76
2024/01/05 07:00:04;;;;;;;14.38;10.18;;;6.20;99.90;;;;;;5044722;28;20041;-72
2024/01/05 07:02:29;;;;;;;12.52;8.82;;;6.80;99.90;;;;;;5047008;28;20059;-74
2024/01/05 07:04:55;;;;;;;12.40;9.43;;;6.20;99.90;;;;;;5014083;28;20120;-77
2024/01/05 07:07:21;;;;;;;13.38;10.32;;;8.10;99.90;;;;;;5048921;28;20041;-74
2024/01/05 07:09:46;;;;;;;13.93;9.27;;;7.90;99.90;;;;;;5049883;28;20041;-74
2024/01/05 07:12:12;;;;;;;15.07;10.30;;;7.50;99.90;;;;;;5015058;28;20095;-71
2024/01/05 07:14:38;;;;;;;14.60;9.95;;;6.30;99.90;;;;;;5014299;28;20421;-74
2024/01/05 07:17:03;;;;;;;13.13;9.38;;;6.40;99.90;;;;;;5045509;28;20557;-78
2024/01/05 07:19:29;;;;;;;16.95;11.40;;;7.80;99.90;;;;;;5030020;28;20029;-77
2024/01/05 07:21:55;;;;;;;20.10;11.50;;;7.70;99.90;;;;;;5031977;28;20038;-78
2024/01/05 07:24:20;;;;;;;13.80;10.43;;;7.60;99.90;;;;;;5030557;28;20037;-78
2024/01/05 07:26:46;;;;;;;15.30;11.60;;;7.70;99.90;;;;;;5027464;28;20045;-79
2024/01/05 07:29:12;;;;;;;15.00;11.15;;;6.90;99.90;;;;;;5047475;28;20115;-80
2024/01/05 07:31:38;;;;;;;16.40;10.63;;;6.50;99.90;;;;;;5049895;28;20033;-73
2024/01/05 07:34:03;;;;;;;14.20;9.52;;;6.70;99.90;;;;;;5033337;28;20479;-77
2024/01/05 07:36:29;;;;;;;17.67;13.15;;;6.90;99.90;;;;;;5033779;28;20056;-77
2024/01/05 07:38:58;;;;;;;18.48;12.85;;;6.60;99.90;;;;;;5052478;28;20021;-76
2024/01/05 07:41:25;;;;;;;18.55;12.77;;;7.80;99.90;;;;;;5052370;28;20132;-79
2024/01/05 07:43:51;;;;;;;18.98;12.27;;;6.70;99.90;;;;;;5043749;28;20076;-78
2024/01/05 07:46:17;;;;;;;15.10;11.25;;;7.10;99.90;;;;;;5052089;28;20044;-79
2024/01/05 07:48:43;;;;;;;19.08;12.25;;;7.80;99.90;;;;;;5034173;28;20032;-74
2024/01/05 07:51:10;;;;;;;19.67;13.90;;;7.40;99.90;;;;;;5047087;28;20060;-77
2024/01/05 07:53:36;;;;;;;22.38;13.70;;;7.90;99.90;;;;;;5075639;28;20044;-78
2024/01/05 07:56:02;;;;;;;18.20;12.68;;;6.90;99.90;;;;;;5042947;28;20645;-77
2024/01/05 07:58:28;;;;;;;18.25;12.65;;;7.50;99.90;;;;;;5076656;28;20048;-79
2024/01/05 08:00:54;;;;;;;21.73;13.98;;;7.70;99.90;;;;;;5045774;28;20052;-75
2024/01/05 08:03:21;;;;;;;26.02;16.20;;;7.70;99.90;;;;;;5043757;28;20107;-74
2024/01/05 08:05:47;;;;;;;23.40;15.85;;;8.00;99.90;;;;;;5042511;28;20074;-78
2024/01/05 08:08:13;;;;;;;20.45;14.00;;;7.90;99.90;;;;;;5026195;28;20045;-77
2024/01/05 08:10:39;;;;;;;22.63;15.55;;;7.80;99.90;;;;;;5050579;28;20048;-74
2024/01/05 08:13:05;;;;;;;22.83;16.00;;;8.10;99.90;;;;;;5051437;28;20037;-80
2024/01/05 08:15:31;;;;;;;22.02;15.05;;;6.80;99.90;;;;;;5034063;28;20044;-77
2024/01/05 08:17:58;;;;;;;22.20;15.75;;;8.00;99.90;;;;;;5082249;28;20411;-78
2024/01/05 08:20:24;;;;;;;22.48;14.85;;;6.80;99.90;;;;;;5030225;28;20120;-79
2024/01/05 08:22:49;;;;;;;27.30;15.85;;;7.90;99.90;;;;;;5050867;28;20045;-77
2024/01/05 08:25:15;;;;;;;21.92;16.00;;;8.00;99.90;;;;;;5056653;28;20362;-74
2024/01/05 08:27:42;;;;;;;19.73;13.93;;;7.30;99.90;;;;;;5049742;28;20378;-75
2024/01/05 08:30:12;;;;;;;24.42;16.52;;;8.00;99.90;;;;;;5048021;28;20037;-75
2024/01/05 08:32:38;;;;;;;28.13;18.55;;;6.80;99.90;;;;;;5049968;28;20088;-74
2024/01/05 08:35:06;;;;;;;30.00;19.30;;;8.00;99.90;;;;;;5047787;28;20040;-76
2024/01/05 08:37:32;;;;;;;27.80;18.50;;;7.90;99.90;;;;;;5049584;28;20569;-75
2024/01/05 08:39:57;;;;;;;24.42;17.33;;;7.10;99.90;;;;;;5055310;28;20123;-77
2024/01/05 08:42:23;;;;;;;25.38;18.15;;;7.60;99.90;;;;;;5016829;28;20187;-80
2024/01/05 08:44:52;;;;;;;27.15;18.33;;;7.40;99.90;;;;;;5033156;28;20037;-74
2024/01/05 08:47:18;;;;;;;28.20;18.80;;;7.00;99.90;;;;;;5012592;28;20670;-76
2024/01/05 08:49:44;;;;;;;25.65;17.75;;;8.10;99.90;;;;;;5026195;28;20145;-76
2024/01/05 08:52:10;;;;;;;31.10;17.70;;;7.10;99.90;;;;;;5032378;28;20354;-77
2024/01/05 08:54:40;;;;;;;30.38;18.90;;;8.20;99.90;;;;;;5035734;28;20052;-81
2024/01/05 08:57:09;;;;;;;20.92;14.23;;;6.90;99.90;;;;;;5071093;28;20045;-77
2024/01/05 08:59:37;;;;;;;29.33;19.05;;;8.20;99.90;;;;;;5048703;28;20076;-78
2024/01/05 09:02:03;;;;;;;21.40;14.82;;;7.00;99.90;;;;;;5014929;28;20040;-79
2024/01/05 09:04:29;;;;;;;28.30;18.42;;;6.90;99.90;;;;;;5040753;28;20043;-76
2024/01/05 09:06:55;;;;;;;24.25;19.98;;;8.10;99.90;;;;;;5031903;28;20061;-78
2024/01/05 09:09:20;;;;;;;25.77;17.88;;;8.20;99.90;;;;;;5050116;28;20041;-74
2024/01/05 09:11:46;;;;;;;34.55;20.02;;;8.20;99.90;;;;;;5047240;28;20103;-79
2024/01/05 09:14:12;;;;;;;26.27;15.70;;;7.10;99.90;;;;;;5028005;28;20044;-79
2024/01/05 09:16:37;;;;;;;24.98;16.50;;;8.30;99.90;;;;;;5036342;28;20040;-79
2024/01/05 09:19:03;;;;;;;22.33;15.65;;;8.20;99.90;;;;;;5011908;28;20033;-76
2024/01/05 09:21:29;;;;;;;21.45;15.77;;;7.10;99.90;;;;;;4995337;28;20037;-77
2024/01/05 09:23:54;;;;;;;28.48;17.50;;;7.10;99.90;;;;;;5043680;28;20044;-81
2024/01/05 09:26:20;;;;;;;28.30;16.17;;;7.80;99.90;;;;;;5026457;28;20041;-78
2024/01/05 09:28:46;;;;;;;22.23;15.02;;;7.40;99.90;;;;;;5055517;28;20060;-78
2024/01/05 09:31:12;;;;;;;20.88;15.50;;;7.90;99.90;;;;;;5028349;28;20044;-78
2024/01/05 09:33:38;;;;;;;23.83;16.30;;;7.30;99.90;;;;;;5071594;28;20052;-79
2024/01/05 09:36:04;;;;;;;26.52;16.52;;;7.30;99.90;;;;;;5027786;28;20516;-77
2024/01/05 09:38:30;;;;;;;23.15;15.27;;;7.30;99.90;;;;;;5072897;28;20436;-79
2024/01/05 09:40:55;;;;;;;24.75;15.70;;;7.90;99.90;;;;;;5046777;28;20083;-80
2024/01/05 09:43:25;;;;;;;28.75;17.42;;;8.30;99.90;;;;;;5007891;28;20572;-78
2024/01/05 09:45:51;;;;;;;25.42;15.98;;;7.30;99.90;;;;;;5042179;28;20393;-80
2024/01/05 09:48:21;;;;;;;24.42;16.27;;;7.30;99.90;;;;;;5026162;28;20048;-79
2024/01/05 09:50:52;;;;;;;24.67;17.05;;;8.50;99.90;;;;;;5054175;28;20527;-77
2024/01/05 09:53:18;;;;;;;26.85;18.67;;;7.40;99.90;;;;;;5041242;28;20041;-80
2024/01/05 09:55:47;;;;;;;26.63;16.80;;;8.20;99.90;;;;;;5011671;28;20371;-79
2024/01/05 09:58:16;;;;;;;24.52;15.18;;;7.30;99.90;;;;;;5007554;28;20039;-80
2024/01/05 10:00:49;;;;;;;26.85;17.00;;;8.60;99.90;;;;;;5044057;28;20056;-80
2024/01/05 10:03:25;;;;;;;27.45;17.52;;;8.60;99.90;;;;;;5050643;28;20120;-78
2024/01/05 10:05:53;;;;;;;24.98;16.90;;;7.50;99.90;;;;;;5043036;28;20124;-81
2024/01/05 10:08:21;;;;;;;29.67;21.30;;;7.50;99.90;;;;;;5054410;28;20649;-79
2024/01/05 10:10:49;;;;;;;25.10;17.75;;;8.60;99.90;;;;;;5027348;28;20045;-82
2024/01/05 10:13:16;;;;;;;31.05;19.75;;;7.50;99.90;;;;;;5026595;28;20146;-79
2024/01/05 10:15:55;;;;;;;23.55;16.85;;;7.60;99.90;;;;;;5032191;28;20039;-79
2024/01/05 10:18:22;;;;;;;29.85;18.77;;;8.80;99.90;;;;;;5051592;28;20048;-77
2024/01/05 10:20:47;;;;;;;29.13;18.20;;;7.70;99.90;;;;;;5032108;28;20105;-78
2024/01/05 10:23:14;;;;;;;27.83;18.90;;;7.80;99.90;;;;;;5014279;28;20561;-79
2024/01/05 10:25:39;;;;;;;27.00;18.02;;;8.70;99.90;;;;;;5028972;28;20033;-80
2024/01/05 10:28:29;;;;;;;28.50;22.17;;;7.90;99.90;;;;;;5009264;28;20515;-78
2024/01/05 10:31:13;;;;;;;22.48;15.23;;;8.30;99.90;;;;;;5045731;28;20400;-78
2024/01/05 10:33:53;;;;;;;23.55;15.60;;;7.80;99.90;;;;;;5046779;28;20040;-77
2024/01/05 10:36:23;;;;;;;25.20;17.30;;;7.90;99.90;;;;;;5070513;28;20127;-78
2024/01/05 10:38:50;;;;;;;22.23;16.10;;;8.30;99.90;;;;;;5050378;28;20084;-80
2024/01/05 10:41:17;;;;;;;23.77;15.38;;;8.90;99.90;;;;;;5029976;28;20136;-81
2024/01/05 10:43:43;;;;;;;26.27;16.70;;;8.50;99.90;;;;;;5034612;28;20048;-78
2024/01/05 10:46:18;;;;;;;21.33;14.77;;;9.00;99.90;;;;;;5046829;28;20048;-79
2024/01/05 10:48:44;;;;;;;22.55;15.38;;;9.00;99.90;;;;;;5045558;28;20064;-78
2024/01/05 10:51:20;;;;;;;22.30;15.77;;;9.10;99.90;;;;;;5045734;28;20091;-82
2024/01/05 10:53:49;;;;;;;22.02;15.90;;;9.10;99.90;;;;;;5045280;28;20041;-80
2024/01/05 10:56:19;;;;;;;27.52;17.65;;;8.10;99.90;;;;;;5046061;28;20051;-79
2024/01/05 10:58:48;;;;;;;24.25;16.60;;;8.50;99.90;;;;;;5062926;28;20037;-77
2024/01/05 11:01:19;;;;;;;25.85;19.13;;;8.10;99.90;;;;;;5059232;28;20033;-82
2024/01/05 11:03:50;;;;;;;25.85;16.35;;;8.10;99.90;;;;;;5028813;28;20124;-79
2024/01/05 11:06:16;;;;;;;24.38;16.42;;;9.10;99.90;;;;;;5027682;28;20664;-85
2024/01/05 11:08:53;;;;;;;22.92;15.48;;;9.00;99.90;;;;;;5042692;28;20037;-78
2024/01/05 11:11:46;;;;;;;26.92;17.83;;;8.10;99.90;;;;;;5046187;28;20044;-82
2024/01/05 11:14:37;;;;;;;26.05;17.20;;;8.00;99.90;;;;;;5056230;28;20063;-80
2024/01/05 11:17:25;;;;;;;25.58;17.00;;;8.00;99.90;;;;;;5044617;28;20037;-82
2024/01/05 11:20:16;;;;;;;28.25;18.80;;;9.10;99.90;;;;;;5030505;28;20041;-83
2024/01/05 11:22:47;;;;;;;27.60;20.88;;;8.80;99.90;;;;;;5027283;28;20076;-76
2024/01/05 11:25:15;;;;;;;32.53;20.52;;;9.20;99.90;;;;;;5034451;28;20040;-75
2024/01/05 11:27:45;;;;;;;29.42;19.38;;;9.10;99.90;;;;;;5045836;28;20041;-78
2024/01/05 11:30:12;;;;;;;25.17;18.02;;;8.90;99.90;;;;;;5044938;28;20047;-74
2024/01/05 11:32:44;;;;;;;26.38;18.30;;;8.30;99.90;;;;;;5044814;28;20110;-76
2024/01/05 11:35:15;;;;;;;29.35;22.63;;;8.30;99.90;;;;;;5076099;28;20367;-76
2024/01/05 11:37:41;;;;;;;30.23;19.80;;;8.20;99.90;;;;;;5027583;28;20064;-75
2024/01/05 11:40:07;;;;;;;32.22;20.10;;;8.70;99.90;;;;;;5028355;28;20037;-80
2024/01/05 11:42:33;;;;;;;28.40;19.85;;;8.30;99.90;;;;;;5018654;28;20050;-79
2024/01/05 11:45:09;;;;;;;33.80;20.65;;;9.30;99.90;;;;;;5027233;28;20040;-75
2024/01/05 11:47:37;;;;;;;39.60;25.58;;;8.30;99.90;;;;;;5043858;28;20052;-75
2024/01/05 11:50:26;;;;;;;47.88;30.08;;;8.40;99.90;;;;;;5043447;28;20834;-76
2024/01/05 11:53:16;;;;;;;39.55;22.88;;;9.20;99.90;;;;;;5026980;28;20125;-79
2024/01/05 11:55:51;;;;;;;35.90;20.92;;;8.40;99.90;;;;;;5047015;28;20048;-74
2024/01/05 11:58:28;;;;;;;24.90;17.13;;;9.50;99.90;;;;;;5046024;28;20398;-77
2024/01/05 12:00:56;;;;;;;28.25;19.95;;;8.70;99.90;;;;;;5045245;28;20036;-76
2024/01/05 12:03:24;;;;;;;26.65;19.10;;;9.40;99.90;;;;;;5027944;28;20051;-81
2024/01/05 12:06:01;;;;;;;22.98;16.60;;;8.30;99.90;;;;;;5045354;28;20040;-79
2024/01/05 12:08:27;;;;;;;26.73;19.50;;;8.50;99.90;;;;;;5046331;28;20870;-78
2024/01/05 12:10:56;;;;;;;26.85;20.23;;;8.40;99.90;;;;;;5029627;28;20052;-75
2024/01/05 12:13:29;;;;;;;21.75;14.93;;;9.40;99.90;;;;;;5043762;28;20044;-77
2024/01/05 12:16:00;;;;;;;28.65;19.65;;;9.40;99.90;;;;;;5013073;28;20037;-76
2024/01/05 12:18:26;;;;;;;25.20;18.55;;;8.60;99.90;;;;;;5030870;28;20425;-78
2024/01/05 12:21:03;;;;;;;20.40;16.77;;;8.30;99.90;;;;;;5049198;28;20128;-77
2024/01/05 12:23:30;;;;;;;20.55;16.80;;;9.40;99.90;;;;;;5040456;28;20404;-79
2024/01/05 12:26:09;;;;;;;23.75;17.55;;;8.20;99.90;;;;;;5032445;28;20052;-76
2024/01/05 12:28:39;;;;;;;22.70;17.13;;;8.70;99.90;;;;;;5050544;28;20436;-78
2024/01/05 12:31:09;;;;;;;22.70;16.77;;;8.30;99.90;;;;;;5049244;28;20044;-78
2024/01/05 12:33:37;;;;;;;21.13;15.93;;;8.20;99.90;;;;;;5031440;28;20087;-79
2024/01/05 12:36:14;;;;;;;21.13;14.63;;;9.30;99.90;;;;;;5048646;28;20033;-79
2024/01/05 12:38:40;;;;;;;22.25;15.93;;;8.60;99.90;;;;;;5048325;28;20049;-77